sensor_id;sensor_type;location;lat;lon;timestamp;temperature;humidity
24902;DHT22;31328;51.402;0.016;2024-03-23T00:54:34;7.20;99.90
24902;DHT22;31328;51.402;0.016;2024-03-23T00:57:01;7.20;99.90
24902;DHT22;31328;51.402;0.016;2024-03-23T00:59:27;7.20;99.90
24902;DHT22;31328;51.402;0.016;2024-03-23T01:01:55;7.20;99.90
24902;DHT22;31328;51.402;0.016;2024-03-23T01:04:21;7.10;99.90
24902;DHT22;31328;51.402;0.016;2024-03-23T01:06:47;7.20;99.90
24902;DHT22;31328;51.402;0.016;2024-03-23T01:09:14;7.10;99.90
24902;DHT22;31328;51.402;0.016;2024-03-23T01:11:40;7.10;99.90
24902;DHT22;31328;51.402;0.016;2024-03-23T01:14:07;7.10;99.90
24902;DHT22;31328;51.402;0.016;2024-03-23T01:16:33;7.10;99.90
24902;DHT22;31328;51.402;0.016;2024-03-23T01:18:59;7.10;99.90
24902;DHT22;31328;51.402;0.016;2024-03-23T01:21:26;7.10;99.90
24902;DHT22;31328;51.402;0.016;2024-03-23T01:23:52;7.10;99.90
24902;DHT22;31328;51.402;0.016;2024-03-23T01:26:18;7.10;99.90
24902;DHT22;31328;51.402;0.016;2024-03-23T01:28:45;7.10;99.90
24902;DHT22;31328;51.402;0.016;2024-03-23T01:31:11;7.10;99.90
24902;DHT22;31328;51.402;0.016;2024-03-23T01:33:37;7.10;99.90
24902;DHT22;31328;51.402;0.016;2024-03-23T01:36:04;7.10;99.90
24902;DHT22;31328;51.402;0.016;2024-03-23T01:38:30;7.10;99.90
24902;DHT22;31328;51.402;0.016;2024-03-23T01:40:57;7.10;99.90
24902;DHT22;31328;51.402;0.016;2024-03-23T01:43:24;7.10;99.90
24902;DHT22;31328;51.402;0.016;2024-03-23T01:45:50;7.10;99.90
24902;DHT22;31328;51.402;0.016;2024-03-23T01:48:22;7.00;99.90
24902;DHT22;31328;51.402;0.016;2024-03-23T01:50:48;7.00;99.90
24902;DHT22;31328;51.402;0.016;2024-03-23T01:53:15;7.10;99.90
24902;DHT22;31328;51.402;0.016;2024-03-23T01:55:44;7.00;99.90
24902;DHT22;31328;51.402;0.016;2024-03-23T01:58:10;7.00;99.90
24902;DHT22;31328;51.402;0.016;2024-03-23T02:00:36;7.00;99.90
24902;DHT22;31328;51.402;0.016;2024-03-23T02:03:25;7.00;99.90
24902;DHT22;31328;51.402;0.016;2024-03-23T02:05:53;7.00;99.90
24902;DHT22;31328;51.402;0.016;2024-03-23T02:08:23;6.90;99.90
24902;DHT22;31328;51.402;0.016;2024-03-23T02:10:50;6.90;99.90
24902;DHT22;31328;51.402;0.016;2024-03-23T02:13:18;6.90;99.90
24902;DHT22;31328;51.402;0.016;2024-03-23T02:15:44;6.90;99.90
24902;DHT22;31328;51.402;0.016;2024-03-23T02:18:11;6.80;99.90
24902;DHT22;31328;51.402;0.016;2024-03-23T02:20:38;6.80;99.90
24902;DHT22;31328;51.402;0.016;2024-03-23T02:23:05;6.80;99.90
24902;DHT22;31328;51.402;0.016;2024-03-23T02:25:32;6.80;99.90
24902;DHT22;31328;51.402;0.016;2024-03-23T02:27:59;6.80;99.90
24902;DHT22;31328;51.402;0.016;2024-03-23T02:30:26;6.70;99.90
24902;DHT22;31328;51.402;0.016;2024-03-23T02:32:53;6.70;99.90
24902;DHT22;31328;51.402;0.016;2024-03-23T02:35:19;6.70;99.90
24902;DHT22;31328;51.402;0.016;2024-03-23T02:37:46;6.70;99.90
24902;DHT22;31328;51.402;0.016;2024-03-23T02:40:15;6.70;99.90
24902;DHT22;31328;51.402;0.016;2024-03-23T02:42:42;6.70;99.90
24902;DHT22;31328;51.402;0.016;2024-03-23T02:45:08;6.70;99.90
24902;DHT22;31328;51.402;0.016;2024-03-23T02:47:35;6.70;99.90
24902;DHT22;31328;51.402;0.016;2024-03-23T02:50:01;6.70;99.90
24902;DHT22;31328;51.402;0.016;2024-03-23T02:52:28;6.70;99.90
24902;DHT22;31328;51.402;0.016;2024-03-23T02:54:54;6.70;99.90
24902;DHT22;31328;51.402;0.016;2024-03-23T02:57:20;6.70;99.90
24902;DHT22;31328;51.402;0.016;2024-03-23T02:59:47;6.60;99.90
24902;DHT22;31328;51.402;0.016;2024-03-23T03:02:13;6.60;99.90
24902;DHT22;31328;51.402;0.016;2024-03-23T03:04:40;6.60;99.90
24902;DHT22;31328;51.402;0.016;2024-03-23T03:07:06;6.60;99.90
24902;DHT22;31328;51.402;0.016;2024-03-23T03:09:32;6.60;99.90
24902;DHT22;31328;51.402;0.016;2024-03-23T03:12:07;6.60;99.90
24902;DHT22;31328;51.402;0.016;2024-03-23T03:14:34;6.60;99.90
24902;DHT22;31328;51.402;0.016;2024-03-23T03:17:00;6.50;99.90
24902;DHT22;31328;51.402;0.016;2024-03-23T03:19:27;6.50;99.90
24902;DHT22;31328;51.402;0.016;2024-03-23T03:21:53;6.50;99.90
24902;DHT22;31328;51.402;0.016;2024-03-23T03:24:20;6.50;99.90
24902;DHT22;31328;51.402;0.016;2024-03-23T03:26:46;6.50;99.90
24902;DHT22;31328;51.402;0.016;2024-03-23T03:29:12;6.50;99.90
24902;DHT22;31328;51.402;0.016;2024-03-23T03:31:39;6.40;99.90
24902;DHT22;31328;51.402;0.016;2024-03-23T03:34:05;6.40;99.90
24902;DHT22;31328;51.402;0.016;2024-03-23T03:36:32;6.40;99.90
24902;DHT22;31328;51.402;0.016;2024-03-23T03:38:58;6.40;99.90
24902;DHT22;31328;51.402;0.016;2024-03-23T03:41:24;6.40;99.90
24902;DHT22;31328;51.402;0.016;2024-03-23T03:43:51;6.40;99.90
24902;DHT22;31328;51.402;0.016;2024-03-23T03:46:17;6.30;99.90
24902;DHT22;31328;51.402;0.016;2024-03-23T03:48:43;6.30;99.90
24902;DHT22;31328;51.402;0.016;2024-03-23T03:51:11;6.30;99.90
24902;DHT22;31328;51.402;0.016;2024-03-23T03:53:37;6.30;99.90
24902;DHT22;31328;51.402;0.016;2024-03-23T03:56:03;6.30;99.90
24902;DHT22;31328;51.402;0.016;2024-03-23T03:58:30;6.30;99.90
24902;DHT22;31328;51.402;0.016;2024-03-23T04:00:56;6.30;99.90
24902;DHT22;31328;51.402;0.016;2024-03-23T04:03:22;6.20;99.90
24902;DHT22;31328;51.402;0.016;2024-03-23T04:05:53;6.30;99.90
24902;DHT22;31328;51.402;0.016;2024-03-23T04:08:20;6.20;99.90
24902;DHT22;31328;51.402;0.016;2024-03-23T04:10:46;6.20;99.90
24902;DHT22;31328;51.402;0.016;2024-03-23T04:13:13;6.20;99.90
24902;DHT22;31328;51.402;0.016;2024-03-23T04:15:40;6.20;99.90
24902;DHT22;31328;51.402;0.016;2024-03-23T04:18:06;6.20;99.90
24902;DHT22;31328;51.402;0.016;2024-03-23T04:20:33;6.20;99.90
24902;DHT22;31328;51.402;0.016;2024-03-23T04:22:59;6.20;99.90
24902;DHT22;31328;51.402;0.016;2024-03-23T04:25:26;6.20;99.90
24902;DHT22;31328;51.402;0.016;2024-03-23T04:27:52;6.10;99.90
24902;DHT22;31328;51.402;0.016;2024-03-23T04:30:18;6.20;99.90
24902;DHT22;31328;51.402;0.016;2024-03-23T04:32:45;6.10;99.90
24902;DHT22;31328;51.402;0.016;2024-03-23T04:35:11;6.10;99.90
24902;DHT22;31328;51.402;0.016;2024-03-23T04:37:39;6.10;99.90
24902;DHT22;31328;51.402;0.016;2024-03-23T04:40:09;6.10;99.90
24902;DHT22;31328;51.402;0.016;2024-03-23T04:42:37;6.10;99.90
24902;DHT22;31328;51.402;0.016;2024-03-23T04:45:04;6.10;99.90
24902;DHT22;31328;51.402;0.016;2024-03-23T04:47:32;6.10;99.90
24902;DHT22;31328;51.402;0.016;2024-03-23T04:49:58;6.10;99.90
24902;DHT22;31328;51.402;0.016;2024-03-23T04:52:25;6.00;99.90
24902;DHT22;31328;51.402;0.016;2024-03-23T04:54:51;6.00;99.90
24902;DHT22;31328;51.402;0.016;2024-03-23T04:57:17;6.00;99.90
24902;DHT22;31328;51.402;0.016;2024-03-23T04:59:47;6.00;99.90
24902;DHT22;31328;51.402;0.016;2024-03-23T05:02:14;6.00;99.90
24902;DHT22;31328;51.402;0.016;2024-03-23T05:04:42;6.00;99.90
24902;DHT22;31328;51.402;0.016;2024-03-23T05:07:08;6.00;99.90
24902;DHT22;31328;51.402;0.016;2024-03-23T05:09:34;6.00;99.90
24902;DHT22;31328;51.402;0.016;2024-03-23T05:12:01;6.00;99.90
24902;DHT22;31328;51.402;0.016;2024-03-23T05:14:27;6.00;99.90
24902;DHT22;31328;51.402;0.016;2024-03-23T05:16:53;5.90;99.90
24902;DHT22;31328;51.402;0.016;2024-03-23T05:19:20;6.00;99.90
24902;DHT22;31328;51.402;0.016;2024-03-23T05:21:46;5.90;99.90
24902;DHT22;31328;51.402;0.016;2024-03-23T05:24:13;5.90;99.90
24902;DHT22;31328;51.402;0.016;2024-03-23T05:26:39;5.90;99.90
24902;DHT22;31328;51.402;0.016;2024-03-23T05:29:05;5.90;99.90
24902;DHT22;31328;51.402;0.016;2024-03-23T05:31:33;5.90;99.90
24902;DHT22;31328;51.402;0.016;2024-03-23T05:33:59;5.90;99.90
24902;DHT22;31328;51.402;0.016;2024-03-23T05:36:25;5.90;99.90
24902;DHT22;31328;51.402;0.016;2024-03-23T05:38:52;5.90;99.90
24902;DHT22;31328;51.402;0.016;2024-03-23T05:41:18;5.80;99.90
24902;DHT22;31328;51.402;0.016;2024-03-23T05:43:44;5.80;99.90
24902;DHT22;31328;51.402;0.016;2024-03-23T05:46:10;5.80;99.90
24902;DHT22;31328;51.402;0.016;2024-03-23T05:48:37;5.80;99.90
24902;DHT22;31328;51.402;0.016;2024-03-23T05:51:03;5.80;99.90
24902;DHT22;31328;51.402;0.016;2024-03-23T05:53:30;5.80;99.90
24902;DHT22;31328;51.402;0.016;2024-03-23T05:56:03;5.80;99.90
24902;DHT22;31328;51.402;0.016;2024-03-23T05:58:30;5.80;99.90
24902;DHT22;31328;51.402;0.016;2024-03-23T06:00:58;5.70;99.90
24902;DHT22;31328;51.402;0.016;2024-03-23T06:03:29;5.70;99.90
24902;DHT22;31328;51.402;0.016;2024-03-23T06:05:55;5.80;99.90
24902;DHT22;31328;51.402;0.016;2024-03-23T06:08:22;5.70;99.90
24902;DHT22;31328;51.402;0.016;2024-03-23T06:10:50;5.70;99.90
24902;DHT22;31328;51.402;0.016;2024-03-23T06:13:16;5.70;99.90
24902;DHT22;31328;51.402;0.016;2024-03-23T06:15:44;5.70;99.90
24902;DHT22;31328;51.402;0.016;2024-03-23T06:18:11;5.80;99.90
24902;DHT22;31328;51.402;0.016;2024-03-23T06:20:38;5.70;99.90
24902;DHT22;31328;51.402;0.016;2024-03-23T06:23:05;5.70;99.90
24902;DHT22;31328;51.402;0.016;2024-03-23T06:25:31;5.70;99.90
24902;DHT22;31328;51.402;0.016;2024-03-23T06:27:58;5.70;99.90
24902;DHT22;31328;51.402;0.016;2024-03-23T06:30:24;5.80;99.90
24902;DHT22;31328;51.402;0.016;2024-03-23T06:32:52;5.70;99.90
24902;DHT22;31328;51.402;0.016;2024-03-23T06:35:19;5.80;99.90
24902;DHT22;31328;51.402;0.016;2024-03-23T06:37:46;5.80;99.90
24902;DHT22;31328;51.402;0.016;2024-03-23T06:40:12;5.80;99.90
24902;DHT22;31328;51.402;0.016;2024-03-23T06:42:38;5.80;99.90
24902;DHT22;31328;51.402;0.016;2024-03-23T06:45:06;5.80;99.90
24902;DHT22;31328;51.402;0.016;2024-03-23T06:47:32;5.90;99.90
24902;DHT22;31328;51.402;0.016;2024-03-23T06:50:03;5.90;99.90
24902;DHT22;31328;51.402;0.016;2024-03-23T06:52:30;5.90;99.90
24902;DHT22;31328;51.402;0.016;2024-03-23T06:54:57;5.90;99.90
24902;DHT22;31328;51.402;0.016;2024-03-23T06:57:23;6.00;99.90
24902;DHT22;31328;51.402;0.016;2024-03-23T06:59:50;6.00;99.90
24902;DHT22;31328;51.402;0.016;2024-03-23T07:02:16;6.00;99.90
24902;DHT22;31328;51.402;0.016;2024-03-23T07:04:42;6.00;99.90
24902;DHT22;31328;51.402;0.016;2024-03-23T07:07:09;6.00;99.90
24902;DHT22;31328;51.402;0.016;2024-03-23T07:09:35;6.00;99.90
24902;DHT22;31328;51.402;0.016;2024-03-23T07:12:01;6.10;99.90
24902;DHT22;31328;51.402;0.016;2024-03-23T07:14:28;6.10;99.90
24902;DHT22;31328;51.402;0.016;2024-03-23T07:16:54;6.10;99.90
24902;DHT22;31328;51.402;0.016;2024-03-23T07:19:20;6.10;99.90
24902;DHT22;31328;51.402;0.016;2024-03-23T07:21:47;6.20;99.90
24902;DHT22;31328;51.402;0.016;2024-03-23T07:24:14;6.20;99.90
24902;DHT22;31328;51.402;0.016;2024-03-23T07:26:40;6.20;99.90
24902;DHT22;31328;51.402;0.016;2024-03-23T07:29:06;6.20;99.90
24902;DHT22;31328;51.402;0.016;2024-03-23T07:31:33;6.30;99.90
24902;DHT22;31328;51.402;0.016;2024-03-23T07:33:59;6.30;99.90
24902;DHT22;31328;51.402;0.016;2024-03-23T07:36:26;6.30;99.90
24902;DHT22;31328;51.402;0.016;2024-03-23T07:38:52;6.40;99.90
24902;DHT22;31328;51.402;0.016;2024-03-23T07:41:20;6.30;99.90
24902;DHT22;31328;51.402;0.016;2024-03-23T07:43:48;6.40;99.90
24902;DHT22;31328;51.402;0.016;2024-03-23T07:46:15;6.40;99.90
24902;DHT22;31328;51.402;0.016;2024-03-23T07:48:42;6.50;99.90
24902;DHT22;31328;51.402;0.016;2024-03-23T07:51:11;6.50;99.90
24902;DHT22;31328;51.402;0.016;2024-03-23T07:53:38;6.50;99.90
24902;DHT22;31328;51.402;0.016;2024-03-23T07:56:08;6.60;99.90
24902;DHT22;31328;51.402;0.016;2024-03-23T07:58:36;6.60;99.90
24902;DHT22;31328;51.402;0.016;2024-03-23T08:01:12;6.70;99.90
24902;DHT22;31328;51.402;0.016;2024-03-23T08:03:40;6.70;99.90
24902;DHT22;31328;51.402;0.016;2024-03-23T08:06:11;6.70;99.90
24902;DHT22;31328;51.402;0.016;2024-03-23T08:08:39;6.80;99.90
24902;DHT22;31328;51.402;0.016;2024-03-23T08:11:06;6.90;99.90
24902;DHT22;31328;51.402;0.016;2024-03-23T08:13:32;7.00;99.90
24902;DHT22;31328;51.402;0.016;2024-03-23T08:16:00;7.10;99.90
24902;DHT22;31328;51.402;0.016;2024-03-23T08:18:27;7.10;99.90
24902;DHT22;31328;51.402;0.016;2024-03-23T08:23:29;7.30;99.90
24902;DHT22;31328;51.402;0.016;2024-03-23T08:25:59;7.30;99.90
24902;DHT22;31328;51.402;0.016;2024-03-23T08:28:26;7.40;99.90
24902;DHT22;31328;51.402;0.016;2024-03-23T08:30:53;7.50;99.90
24902;DHT22;31328;51.402;0.016;2024-03-23T08:33:21;7.60;99.90
24902;DHT22;31328;51.402;0.016;2024-03-23T08:36:04;7.60;99.90
24902;DHT22;31328;51.402;0.016;2024-03-23T08:38:31;7.70;99.90
24902;DHT22;31328;51.402;0.016;2024-03-23T08:43:29;7.80;99.90
24902;DHT22;31328;51.402;0.016;2024-03-23T08:46:13;7.90;99.90
24902;DHT22;31328;51.402;0.016;2024-03-23T08:48:44;8.00;99.90
24902;DHT22;31328;51.402;0.016;2024-03-23T08:51:12;8.00;99.90
24902;DHT22;31328;51.402;0.016;2024-03-23T08:53:40;8.10;99.90
24902;DHT22;31328;51.402;0.016;2024-03-23T08:56:07;8.10;99.90
24902;DHT22;31328;51.402;0.016;2024-03-23T08:58:34;8.20;99.90
24902;DHT22;31328;51.402;0.016;2024-03-23T09:01:05;8.30;99.90
24902;DHT22;31328;51.402;0.016;2024-03-23T09:03:32;8.40;99.90
24902;DHT22;31328;51.402;0.016;2024-03-23T09:05:59;8.40;99.90
24902;DHT22;31328;51.402;0.016;2024-03-23T09:08:26;8.50;99.90
24902;DHT22;31328;51.402;0.016;2024-03-23T09:10:52;8.60;99.90
24902;DHT22;31328;51.402;0.016;2024-03-23T09:13:19;8.60;99.90
24902;DHT22;31328;51.402;0.016;2024-03-23T09:15:50;8.70;99.90
24902;DHT22;31328;51.402;0.016;2024-03-23T09:18:17;8.80;99.90
24902;DHT22;31328;51.402;0.016;2024-03-23T09:20:43;8.90;99.90
24902;DHT22;31328;51.402;0.016;2024-03-23T09:23:10;9.00;99.90
24902;DHT22;31328;51.402;0.016;2024-03-23T09:25:39;9.00;99.90
24902;DHT22;31328;51.402;0.016;2024-03-23T09:28:06;9.10;99.90
24902;DHT22;31328;51.402;0.016;2024-03-23T09:30:35;9.20;99.90
24902;DHT22;31328;51.402;0.016;2024-03-23T09:33:02;9.20;99.90
24902;DHT22;31328;51.402;0.016;2024-03-23T09:35:29;9.20;99.90
24902;DHT22;31328;51.402;0.016;2024-03-23T09:37:55;9.20;99.90
24902;DHT22;31328;51.402;0.016;2024-03-23T09:40:23;9.20;99.90
24902;DHT22;31328;51.402;0.016;2024-03-23T09:42:50;9.30;99.90
24902;DHT22;31328;51.402;0.016;2024-03-23T09:45:20;9.30;99.90
24902;DHT22;31328;51.402;0.016;2024-03-23T09:47:47;9.40;99.90
24902;DHT22;31328;51.402;0.016;2024-03-23T09:50:13;9.50;99.90
24902;DHT22;31328;51.402;0.016;2024-03-23T09:52:40;9.50;99.90
24902;DHT22;31328;51.402;0.016;2024-03-23T09:55:08;9.60;99.90
24902;DHT22;31328;51.402;0.016;2024-03-23T09:57:35;9.60;99.90
24902;DHT22;31328;51.402;0.016;2024-03-23T10:00:03;9.50;99.90
24902;DHT22;31328;51.402;0.016;2024-03-23T10:02:34;9.70;99.90
24902;DHT22;31328;51.402;0.016;2024-03-23T10:05:00;9.70;99.90
24902;DHT22;31328;51.402;0.016;2024-03-23T10:07:27;9.80;99.90
24902;DHT22;31328;51.402;0.016;2024-03-23T10:09:56;9.80;99.90
24902;DHT22;31328;51.402;0.016;2024-03-23T10:12:24;10.00;99.90
24902;DHT22;31328;51.402;0.016;2024-03-23T10:14:50;10.10;99.90
24902;DHT22;31328;51.402;0.016;2024-03-23T10:17:21;10.20;99.90
24902;DHT22;31328;51.402;0.016;2024-03-23T10:19:52;10.20;99.90
24902;DHT22;31328;51.402;0.016;2024-03-23T10:22:20;10.20;99.90
24902;DHT22;31328;51.402;0.016;2024-03-23T10:24:47;10.20;99.90
24902;DHT22;31328;51.402;0.016;2024-03-23T10:27:18;10.20;99.90
24902;DHT22;31328;51.402;0.016;2024-03-23T10:29:46;10.20;99.90
24902;DHT22;31328;51.402;0.016;2024-03-23T10:32:14;10.20;99.90
24902;DHT22;31328;51.402;0.016;2024-03-23T10:34:41;10.20;99.90
24902;DHT22;31328;51.402;0.016;2024-03-23T10:37:08;10.30;99.90
24902;DHT22;31328;51.402;0.016;2024-03-23T10:39:41;10.40;99.90
24902;DHT22;31328;51.402;0.016;2024-03-23T10:42:08;10.50;99.90
24902;DHT22;31328;51.402;0.016;2024-03-23T10:44:36;10.60;99.90
24902;DHT22;31328;51.402;0.016;2024-03-23T10:47:04;10.70;99.90
24902;DHT22;31328;51.402;0.016;2024-03-23T10:49:35;10.90;99.90
24902;DHT22;31328;51.402;0.016;2024-03-23T10:52:05;11.00;99.90
24902;DHT22;31328;51.402;0.016;2024-03-23T10:54:32;11.00;99.90
24902;DHT22;31328;51.402;0.016;2024-03-23T10:57:15;11.10;99.90
24902;DHT22;31328;51.402;0.016;2024-03-23T10:59:44;11.10;99.90
24902;DHT22;31328;51.402;0.016;2024-03-23T11:02:21;11.10;99.90
24902;DHT22;31328;51.402;0.016;2024-03-23T11:04:48;11.10;99.90
24902;DHT22;31328;51.402;0.016;2024-03-23T11:09:50;11.20;99.90
24902;DHT22;31328;51.402;0.016;2024-03-23T11:14:52;11.40;99.90
24902;DHT22;31328;51.402;0.016;2024-03-23T11:17:22;11.50;99.90
24902;DHT22;31328;51.402;0.016;2024-03-23T11:20:01;11.50;99.90
24902;DHT22;31328;51.402;0.016;2024-03-23T11:22:46;11.50;99.90
24902;DHT22;31328;51.402;0.016;2024-03-23T11:25:21;11.50;99.90
24902;DHT22;31328;51.402;0.016;2024-03-23T11:27:55;11.70;99.90
24902;DHT22;31328;51.402;0.016;2024-03-23T11:30:27;11.70;99.90
24902;DHT22;31328;51.402;0.016;2024-03-23T11:32:57;11.80;99.90
24902;DHT22;31328;51.402;0.016;2024-03-23T11:35:34;11.80;99.90
24902;DHT22;31328;51.402;0.016;2024-03-23T11:38:14;11.80;99.90
24902;DHT22;31328;51.402;0.016;2024-03-23T11:40:46;11.80;99.90
24902;DHT22;31328;51.402;0.016;2024-03-23T11:43:14;11.90;99.90
24902;DHT22;31328;51.402;0.016;2024-03-23T11:48:15;11.90;99.90
24902;DHT22;31328;51.402;0.016;2024-03-23T11:50:46;11.90;99.90
24902;DHT22;31328;51.402;0.016;2024-03-23T11:53:16;12.00;99.90
24902;DHT22;31328;51.402;0.016;2024-03-23T11:55:46;12.00;99.90
24902;DHT22;31328;51.402;0.016;2024-03-23T11:58:14;12.00;99.90
24902;DHT22;31328;51.402;0.016;2024-03-23T12:00:41;12.10;99.90
24902;DHT22;31328;51.402;0.016;2024-03-23T12:03:07;12.10;99.90
24902;DHT22;31328;51.402;0.016;2024-03-23T12:05:34;12.10;99.90
24902;DHT22;31328;51.402;0.016;2024-03-23T12:11:08;12.10;99.90
24902;DHT22;31328;51.402;0.016;2024-03-23T12:13:35;12.00;99.90
24902;DHT22;31328;51.402;0.016;2024-03-23T12:16:18;12.00;99.90
24902;DHT22;31328;51.402;0.016;2024-03-23T12:18:49;12.00;99.90
24902;DHT22;31328;51.402;0.016;2024-03-23T12:21:17;12.00;99.90
24902;DHT22;31328;51.402;0.016;2024-03-23T12:23:44;12.00;99.90
24902;DHT22;31328;51.402;0.016;2024-03-23T12:26:11;12.10;99.90
24902;DHT22;31328;51.402;0.016;2024-03-23T12:28:38;12.20;99.90
24902;DHT22;31328;51.402;0.016;2024-03-23T12:31:05;12.40;99.90
24902;DHT22;31328;51.402;0.016;2024-03-23T12:33:31;12.50;99.90
24902;DHT22;31328;51.402;0.016;2024-03-23T12:35:58;12.70;99.90
24902;DHT22;31328;51.402;0.016;2024-03-23T12:38:24;12.90;99.90
24902;DHT22;31328;51.402;0.016;2024-03-23T12:40:51;12.90;99.90
24902;DHT22;31328;51.402;0.016;2024-03-23T12:43:17;13.00;99.90
24902;DHT22;31328;51.402;0.016;2024-03-23T12:45:47;13.00;99.90
24902;DHT22;31328;51.402;0.016;2024-03-23T12:48:13;12.90;99.90
24902;DHT22;31328;51.402;0.016;2024-03-23T12:50:40;12.80;99.90
24902;DHT22;31328;51.402;0.016;2024-03-23T12:53:06;12.70;99.90
24902;DHT22;31328;51.402;0.016;2024-03-23T12:55:35;12.70;99.90
24902;DHT22;31328;51.402;0.016;2024-03-23T12:58:02;12.80;99.90
24902;DHT22;31328;51.402;0.016;2024-03-23T13:00:29;12.80;99.90
24902;DHT22;31328;51.402;0.016;2024-03-23T13:02:55;12.90;99.90
24902;DHT22;31328;51.402;0.016;2024-03-23T13:05:21;12.90;99.90
24902;DHT22;31328;51.402;0.016;2024-03-23T13:07:48;13.00;99.90
24902;DHT22;31328;51.402;0.016;2024-03-23T13:10:14;13.00;99.90
24902;DHT22;31328;51.402;0.016;2024-03-23T13:12:42;13.00;99.90
24902;DHT22;31328;51.402;0.016;2024-03-23T13:15:09;12.90;99.90
24902;DHT22;31328;51.402;0.016;2024-03-23T13:17:35;12.80;99.90
24902;DHT22;31328;51.402;0.016;2024-03-23T13:20:02;12.70;99.90
24902;DHT22;31328;51.402;0.016;2024-03-23T13:22:29;12.50;99.90
24902;DHT22;31328;51.402;0.016;2024-03-23T13:24:56;12.50;99.90
24902;DHT22;31328;51.402;0.016;2024-03-23T13:27:22;12.40;99.90
24902;DHT22;31328;51.402;0.016;2024-03-23T13:29:48;12.40;99.90
24902;DHT22;31328;51.402;0.016;2024-03-23T13:32:16;12.40;99.90
24902;DHT22;31328;51.402;0.016;2024-03-23T13:34:42;12.40;99.90
24902;DHT22;31328;51.402;0.016;2024-03-23T13:37:09;12.40;99.90
24902;DHT22;31328;51.402;0.016;2024-03-23T13:39:36;12.50;99.90
24902;DHT22;31328;51.402;0.016;2024-03-23T13:42:02;12.50;99.90
24902;DHT22;31328;51.402;0.016;2024-03-23T13:44:29;12.50;99.90
24902;DHT22;31328;51.402;0.016;2024-03-23T13:46:56;12.50;99.90
24902;DHT22;31328;51.402;0.016;2024-03-23T13:49:30;12.40;99.90
24902;DHT22;31328;51.402;0.016;2024-03-23T13:51:57;12.40;99.90
24902;DHT22;31328;51.402;0.016;2024-03-23T13:54:27;12.20;99.90
24902;DHT22;31328;51.402;0.016;2024-03-23T13:56:55;12.00;99.90
24902;DHT22;31328;51.402;0.016;2024-03-23T13:59:22;11.80;99.90
24902;DHT22;31328;51.402;0.016;2024-03-23T14:01:49;11.60;99.90
24902;DHT22;31328;51.402;0.016;2024-03-23T14:04:17;11.40;99.90
24902;DHT22;31328;51.402;0.016;2024-03-23T14:06:45;11.10;99.90
24902;DHT22;31328;51.402;0.016;2024-03-23T14:09:12;10.90;99.90
24902;DHT22;31328;51.402;0.016;2024-03-23T14:11:40;10.70;99.90
24902;DHT22;31328;51.402;0.016;2024-03-23T14:14:09;10.40;99.90
24902;DHT22;31328;51.402;0.016;2024-03-23T14:16:35;10.30;99.90
24902;DHT22;31328;51.402;0.016;2024-03-23T14:19:02;10.10;99.90
24902;DHT22;31328;51.402;0.016;2024-03-23T14:21:29;10.00;99.90
24902;DHT22;31328;51.402;0.016;2024-03-23T14:23:55;9.90;99.90
24902;DHT22;31328;51.402;0.016;2024-03-23T14:26:22;9.90;99.90
24902;DHT22;31328;51.402;0.016;2024-03-23T14:28:49;9.80;99.90
24902;DHT22;31328;51.402;0.016;2024-03-23T14:31:16;9.80;99.90
24902;DHT22;31328;51.402;0.016;2024-03-23T14:33:43;9.90;99.90
24902;DHT22;31328;51.402;0.016;2024-03-23T14:36:17;9.90;99.90
24902;DHT22;31328;51.402;0.016;2024-03-23T14:38:49;10.00;99.90
24902;DHT22;31328;51.402;0.016;2024-03-23T14:41:16;10.10;99.90
24902;DHT22;31328;51.402;0.016;2024-03-23T14:43:42;10.10;99.90
24902;DHT22;31328;51.402;0.016;2024-03-23T14:46:16;10.20;99.90
24902;DHT22;31328;51.402;0.016;2024-03-23T14:48:43;10.20;99.90
24902;DHT22;31328;51.402;0.016;2024-03-23T14:51:10;10.30;99.90
24902;DHT22;31328;51.402;0.016;2024-03-23T14:53:41;10.30;99.90
24902;DHT22;31328;51.402;0.016;2024-03-23T14:56:08;10.40;99.90
24902;DHT22;31328;51.402;0.016;2024-03-23T14:58:41;10.50;99.90
24902;DHT22;31328;51.402;0.016;2024-03-23T15:01:08;10.50;99.90
24902;DHT22;31328;51.402;0.016;2024-03-23T15:03:39;10.60;99.90
24902;DHT22;31328;51.402;0.016;2024-03-23T15:06:06;10.70;99.90
24902;DHT22;31328;51.402;0.016;2024-03-23T15:08:32;10.70;99.90
24902;DHT22;31328;51.402;0.016;2024-03-23T15:10:59;10.70;99.90
24902;DHT22;31328;51.402;0.016;2024-03-23T15:13:26;10.70;99.90
24902;DHT22;31328;51.402;0.016;2024-03-23T15:15:53;10.60;99.90
24902;DHT22;31328;51.402;0.016;2024-03-23T15:18:19;10.60;99.90
24902;DHT22;31328;51.402;0.016;2024-03-23T15:20:53;10.70;99.90
24902;DHT22;31328;51.402;0.016;2024-03-23T15:23:19;10.60;99.90
24902;DHT22;31328;51.402;0.016;2024-03-23T15:25:45;10.70;99.90
24902;DHT22;31328;51.402;0.016;2024-03-23T15:28:12;10.60;99.90
24902;DHT22;31328;51.402;0.016;2024-03-23T15:30:39;10.60;99.90
24902;DHT22;31328;51.402;0.016;2024-03-23T15:33:06;10.60;99.90
24902;DHT22;31328;51.402;0.016;2024-03-23T15:35:33;10.60;99.90
24902;DHT22;31328;51.402;0.016;2024-03-23T15:37:59;10.70;99.90
24902;DHT22;31328;51.402;0.016;2024-03-23T15:40:25;10.70;99.90
24902;DHT22;31328;51.402;0.016;2024-03-23T15:42:52;10.80;99.90
24902;DHT22;31328;51.402;0.016;2024-03-23T15:45:18;10.80;99.90
24902;DHT22;31328;51.402;0.016;2024-03-23T15:47:44;10.80;99.90
24902;DHT22;31328;51.402;0.016;2024-03-23T15:50:10;10.80;99.90
24902;DHT22;31328;51.402;0.016;2024-03-23T15:52:37;10.70;99.90
24902;DHT22;31328;51.402;0.016;2024-03-23T15:55:04;10.70;99.90
24902;DHT22;31328;51.402;0.016;2024-03-23T15:57:35;10.70;99.90
24902;DHT22;31328;51.402;0.016;2024-03-23T16:00:04;10.70;99.90
24902;DHT22;31328;51.402;0.016;2024-03-23T16:02:40;10.60;99.90
24902;DHT22;31328;51.402;0.016;2024-03-23T16:05:07;10.50;99.90
24902;DHT22;31328;51.402;0.016;2024-03-23T16:07:37;10.40;99.90
24902;DHT22;31328;51.402;0.016;2024-03-23T16:10:05;10.00;99.90
24902;DHT22;31328;51.402;0.016;2024-03-23T16:12:35;9.60;99.90
24902;DHT22;31328;51.402;0.016;2024-03-23T16:15:01;9.20;99.90
24902;DHT22;31328;51.402;0.016;2024-03-23T16:17:28;8.90;99.90
24902;DHT22;31328;51.402;0.016;2024-03-23T16:19:54;8.60;99.90
24902;DHT22;31328;51.402;0.016;2024-03-23T16:22:21;8.40;99.90
24902;DHT22;31328;51.402;0.016;2024-03-23T16:24:47;8.40;99.90
24902;DHT22;31328;51.402;0.016;2024-03-23T16:27:14;8.30;99.90
24902;DHT22;31328;51.402;0.016;2024-03-23T16:29:40;8.40;99.90
24902;DHT22;31328;51.402;0.016;2024-03-23T16:32:06;8.50;99.90
24902;DHT22;31328;51.402;0.016;2024-03-23T16:34:33;8.50;99.90
24902;DHT22;31328;51.402;0.016;2024-03-23T16:36:59;8.60;99.90
24902;DHT22;31328;51.402;0.016;2024-03-23T16:39:25;8.60;99.90
24902;DHT22;31328;51.402;0.016;2024-03-23T16:41:51;8.70;99.90
24902;DHT22;31328;51.402;0.016;2024-03-23T16:44:18;8.70;99.90
24902;DHT22;31328;51.402;0.016;2024-03-23T16:46:44;8.70;99.90
24902;DHT22;31328;51.402;0.016;2024-03-23T16:49:10;8.70;99.90
24902;DHT22;31328;51.402;0.016;2024-03-23T16:51:37;8.80;99.90